aviador You're here:

TLPL Decoded Metar

HEWANDORRA in ST. LUCIA ISLAND
Report Time2018-07-20 06:00:00
UTC Time2018-07-20 06:51:25
Flight Rules vfr VFR
Wind080° at 21 kt
W.Decomp.*RWY 10: 20.9 kt HW 1.8 kt LCW
W.Rank080° ranks 2
Current wind is above 080° avg. (15.2)
Visibility9999 m
Phenomena:N/A
Clouds:Few 024 Hf
Expected CloudBase > 2,000 ft AGL from Temp-Dew spread
CeilingNone
Temp28°C (ISA +13)
Dew Point23°C (74% RH)
Heat Index31.2°C
AAT25.6°C
QNH1014 hPa
Density Alt1,844 ft
Elevation10 ft
Report Wrong Elevation
Raw Report
METAR TLPL 200600Z 08021KT 9999 FEW024 28/23 Q1014 NOSIG=

Extra information for TLPL:More info

Metar Taf Metar & Taf Last 4 Metars F.Rules Stats Wind Profile Meteogram Temp Stats Airport Information Weather charts Add Link Nearby VenuesMetar ALERT Operation Metar Decoded Social comments